Terminal Aerodrome Forecast
Issued by NWS

Home | Current Version | Previous Version | Graphics & Text | Print | Product List | Glossary On
Versions: 1 2 3 4 5 6 7 8 9 10 11 12 13 14 15 16 17 18 19 20 21
000
FTUS41 KCLE 231733
TAFFDY
TAF
KFDY 231733Z 2318/2418 26012KT P6SM SCT015
     FM240200 09007KT 4SM -DZ BR OVC025
     FM240700 17010KT 4SM BR SCT025
     FM241600 19015G25KT P6SM SCT025=

USA.gov is the U.S. government's official web portal to all federal, state and local government web resources and services.